Terminal Aerodrome Forecast
Issued by NWS

Home | Current Version | Previous Version | Text Only | Print | Product List | Glossary On
Versions: 1 2 3 4 5 6 7 8 9 10 11 12 13 14 15 16 17 18 19
000
FTUS41 KBTV 280533
TAFMPV
TAF
KMPV 280533Z 2806/2906 VRB03KT 6SM BR SKC
      TEMPO 2806/2809 2SM BR SCT001
     FM280900 00000KT 1/4SM FG VV001
     FM281300 VRB03KT P6SM SKC
     FM281500 32005KT P6SM FEW035
     FM290000 VRB03KT P6SM SKC=

USA.gov is the U.S. government's official web portal to all federal, state and local government web resources and services.